Time;durP1;ratioP1;P1;durP2;ratioP2;P2;SDS_P1;SDS_P2;PMS_P1;PMS_P2;Temp;Humidity;BMP_temperature;BMP_pressure;BME280_temperature;BME280_humidity;BME280_pressure;Samples;Min_cycle;Max_cycle;Signal;HPM_P1;HPM_P2
2023/10/29 00:00:31;;;;;;;2.53;0.73;;;15.10;99.90;;;;;;7281195;19;20227;-90
2023/10/29 00:02:57;;;;;;;3.57;0.70;;;15.10;99.90;;;;;;7280752;19;20208;-92
2023/10/29 00:05:24;;;;;;;2.67;0.83;;;15.10;99.90;;;;;;7282326;19;20199;-91
2023/10/29 00:07:50;;;;;;;3.67;0.93;;;15.00;99.90;;;;;;7283353;19;20191;-89
2023/10/29 00:10:18;;;;;;;5.50;1.53;;;15.00;99.90;;;;;;7281337;19;20187;-90
2023/10/29 00:12:44;;;;;;;2.57;0.70;;;15.00;99.90;;;;;;7281658;19;20317;-90
2023/10/29 00:15:10;;;;;;;2.23;0.70;;;15.10;99.90;;;;;;7293657;19;20192;-90
2023/10/29 00:17:36;;;;;;;3.30;0.77;;;15.10;99.90;;;;;;7298425;19;20185;-90
2023/10/29 00:20:06;;;;;;;2.80;0.97;;;15.10;99.90;;;;;;7286922;19;20191;-91
2023/10/29 00:22:32;;;;;;;4.90;1.20;;;15.10;99.90;;;;;;7287057;19;20196;-89
2023/10/29 00:24:58;;;;;;;2.47;0.63;;;15.10;99.90;;;;;;7287118;19;20188;-91
2023/10/29 00:27:24;;;;;;;1.80;0.70;;;15.10;99.90;;;;;;7287437;19;20196;-91
2023/10/29 00:29:50;;;;;;;3.17;0.90;;;15.00;99.90;;;;;;7286625;19;20213;-91
2023/10/29 00:32:18;;;;;;;3.30;0.90;;;15.00;99.90;;;;;;7287286;19;20660;-90
2023/10/29 00:34:48;;;;;;;2.37;0.90;;;15.00;99.90;;;;;;7287521;19;20184;-90
2023/10/29 00:37:17;;;;;;;2.00;0.60;;;15.10;99.90;;;;;;7284611;19;20197;-90
2023/10/29 00:39:43;;;;;;;1.53;0.57;;;15.10;99.90;;;;;;7286823;19;20185;-91
2023/10/29 00:42:13;;;;;;;2.97;0.70;;;15.10;99.90;;;;;;7309021;19;20882;-90
2023/10/29 00:44:39;;;;;;;4.03;0.70;;;15.20;99.90;;;;;;7286276;19;20552;-91
2023/10/29 00:47:06;;;;;;;0.97;0.47;;;15.10;99.90;;;;;;7288585;19;20195;-89
2023/10/29 00:49:33;;;;;;;0.77;0.33;;;15.10;99.90;;;;;;7287042;19;20189;-90
2023/10/29 00:51:59;;;;;;;2.67;0.50;;;15.00;99.90;;;;;;7285638;19;20188;-90
2023/10/29 00:54:25;;;;;;;2.70;0.60;;;15.00;99.90;;;;;;7285887;19;20652;-90
2023/10/29 00:56:53;;;;;;;1.87;0.40;;;15.00;99.90;;;;;;7285271;19;20680;-90
2023/10/29 00:59:20;;;;;;;1.67;0.73;;;15.10;99.90;;;;;;7286317;19;20189;-90
2023/10/29 01:01:47;;;;;;;3.90;0.60;;;15.10;99.90;;;;;;7286344;19;20185;-90
2023/10/29 01:04:14;;;;;;;2.30;0.60;;;15.00;99.90;;;;;;7282763;19;20679;-90
2023/10/29 01:06:41;;;;;;;0.80;0.50;;;15.00;99.90;;;;;;7299120;19;20196;-90
2023/10/29 01:09:11;;;;;;;3.53;0.70;;;15.00;99.90;;;;;;7307470;19;20187;-90
2023/10/29 01:11:38;;;;;;;4.37;0.83;;;14.90;99.90;;;;;;7286536;19;20694;-90
2023/10/29 01:14:04;;;;;;;2.80;0.80;;;14.80;99.90;;;;;;7287242;19;20212;-89
2023/10/29 01:16:30;;;;;;;2.87;0.77;;;14.80;99.90;;;;;;7285391;19;20208;-90
2023/10/29 01:18:58;;;;;;;3.93;0.70;;;14.80;99.90;;;;;;7285415;19;20188;-90
2023/10/29 01:21:26;;;;;;;2.30;0.80;;;14.70;99.90;;;;;;7285482;19;20194;-89
2023/10/29 01:23:52;;;;;;;2.20;0.70;;;14.70;99.90;;;;;;7289545;19;20188;-90
2023/10/29 01:26:17;;;;;;;5.27;1.00;;;14.70;99.90;;;;;;7285313;19;20680;-90
2023/10/29 01:28:44;;;;;;;2.33;0.73;;;14.70;99.90;;;;;;7285731;19;20186;-89
2023/10/29 01:31:10;;;;;;;3.50;0.77;;;14.60;99.90;;;;;;7301951;19;20709;-90
2023/10/29 01:33:37;;;;;;;4.00;0.90;;;14.60;99.90;;;;;;7298164;19;20262;-90
2023/10/29 01:36:03;;;;;;;2.00;0.70;;;14.60;99.90;;;;;;7282485;19;20187;-91
2023/10/29 01:38:29;;;;;;;2.43;0.70;;;14.60;99.90;;;;;;7282520;19;22014;-90
2023/10/29 01:40:55;;;;;;;2.67;0.90;;;14.60;99.90;;;;;;7285671;19;20202;-90
2023/10/29 01:43:21;;;;;;;2.10;0.60;;;14.70;99.90;;;;;;7285437;19;20257;-89
2023/10/29 01:45:46;;;;;;;2.70;0.80;;;14.70;99.90;;;;;;7285887;19;20201;-90
2023/10/29 01:48:12;;;;;;;2.30;0.80;;;14.70;99.90;;;;;;7284604;19;20280;-90
2023/10/29 01:50:38;;;;;;;2.87;0.60;;;14.70;99.90;;;;;;7306752;19;20195;-90
2023/10/29 01:53:03;;;;;;;3.30;0.77;;;14.70;99.90;;;;;;7285006;19;20195;-90
2023/10/29 01:55:30;;;;;;;3.13;0.70;;;14.90;99.90;;;;;;7284190;19;20205;-91
2023/10/29 01:57:56;;;;;;;1.60;0.73;;;14.90;99.90;;;;;;7283026;19;20223;-91
2023/10/29 02:00:22;;;;;;;0.90;0.50;;;15.00;99.90;;;;;;7282721;19;20220;-90
2023/10/29 02:02:49;;;;;;;2.00;0.53;;;15.00;99.90;;;;;;7284945;19;20262;-90
2023/10/29 02:05:16;;;;;;;4.53;0.67;;;15.10;99.90;;;;;;7283698;19;20192;-91
2023/10/29 02:07:42;;;;;;;2.97;0.80;;;15.10;99.90;;;;;;7283266;19;20216;-91
2023/10/29 02:10:08;;;;;;;3.10;0.67;;;15.20;99.90;;;;;;7305375;19;20197;-91
2023/10/29 02:12:34;;;;;;;2.10;0.60;;;15.20;99.90;;;;;;7283279;19;20280;-90
2023/10/29 02:15:00;;;;;;;2.37;0.70;;;15.30;99.90;;;;;;7282064;19;20331;-91
2023/10/29 02:17:27;;;;;;;2.50;0.70;;;15.30;99.90;;;;;;7280543;19;20200;-90
2023/10/29 02:19:55;;;;;;;1.33;0.40;;;15.30;99.90;;;;;;7283508;19;20188;-91
2023/10/29 02:22:23;;;;;;;5.03;0.70;;;15.40;99.90;;;;;;7283528;19;20236;-90
2023/10/29 02:24:49;;;;;;;4.20;0.70;;;15.50;99.90;;;;;;7281152;19;20206;-91
2023/10/29 02:27:15;;;;;;;1.37;0.60;;;15.50;99.90;;;;;;7283003;19;20280;-91
2023/10/29 02:29:41;;;;;;;3.10;0.50;;;15.50;99.90;;;;;;7292222;19;20252;-90
2023/10/29 02:32:07;;;;;;;2.57;0.60;;;15.50;99.90;;;;;;7300653;19;20192;-91
2023/10/29 02:34:32;;;;;;;2.70;0.60;;;15.50;99.90;;;;;;7281248;19;20197;-90
2023/10/29 02:36:58;;;;;;;3.70;0.73;;;15.60;99.90;;;;;;7281743;19;20197;-90
2023/10/29 02:39:24;;;;;;;3.00;0.57;;;15.60;99.90;;;;;;7281430;19;20188;-90
2023/10/29 02:41:50;;;;;;;3.87;0.57;;;15.60;99.90;;;;;;7282066;19;20184;-90
2023/10/29 02:44:16;;;;;;;2.23;0.60;;;15.60;99.90;;;;;;7282356;19;20196;-90
2023/10/29 02:46:41;;;;;;;3.40;0.70;;;15.60;99.90;;;;;;7285184;19;20197;-90
2023/10/29 02:49:07;;;;;;;2.47;0.60;;;15.50;99.90;;;;;;7303747;19;20185;-91
2023/10/29 02:51:33;;;;;;;2.83;0.60;;;15.50;99.90;;;;;;7281269;19;20194;-91
2023/10/29 02:53:59;;;;;;;5.43;0.87;;;15.50;99.90;;;;;;7283063;19;20192;-90
2023/10/29 02:56:25;;;;;;;7.23;1.00;;;15.50;99.90;;;;;;7282219;19;20185;-90
2023/10/29 02:58:52;;;;;;;6.00;1.00;;;15.40;99.90;;;;;;7282405;19;20227;-89
2023/10/29 03:01:18;;;;;;;5.60;0.70;;;15.30;99.90;;;;;;7282145;19;20268;-90
2023/10/29 03:03:44;;;;;;;3.50;0.70;;;15.20;99.90;;;;;;7281687;19;20192;-91
2023/10/29 03:06:10;;;;;;;4.93;0.90;;;15.20;99.90;;;;;;7302741;19;20411;-90
2023/10/29 03:08:36;;;;;;;5.37;1.00;;;15.20;99.90;;;;;;7293016;19;20296;-90
2023/10/29 03:11:03;;;;;;;4.83;0.90;;;15.10;99.90;;;;;;7281744;19;20192;-90
2023/10/29 03:13:29;;;;;;;5.80;0.80;;;15.10;99.90;;;;;;7282490;19;20209;-91
2023/10/29 03:15:56;;;;;;;7.87;0.90;;;15.10;99.90;;;;;;7281405;19;20177;-90
2023/10/29 03:18:23;;;;;;;5.10;0.97;;;15.10;99.90;;;;;;7281118;19;20194;-91
2023/10/29 03:20:49;;;;;;;3.90;0.77;;;15.10;99.90;;;;;;7281586;19;20188;-91
2023/10/29 03:23:15;;;;;;;6.47;1.20;;;15.20;99.90;;;;;;7279919;19;20188;-91
2023/10/29 03:25:41;;;;;;;5.63;1.00;;;15.30;99.90;;;;;;7290707;19;20239;-91
2023/10/29 03:28:07;;;;;;;8.53;1.00;;;15.40;99.90;;;;;;7302761;19;20297;-91
2023/10/29 03:30:33;;;;;;;6.87;0.93;;;15.40;99.90;;;;;;7281514;19;20187;-90
2023/10/29 03:32:59;;;;;;;7.47;0.90;;;15.40;99.90;;;;;;7281277;19;20189;-90
2023/10/29 03:35:27;;;;;;;6.87;0.90;;;15.40;99.90;;;;;;7282043;19;20193;-90
2023/10/29 03:37:54;;;;;;;7.33;1.23;;;15.50;99.90;;;;;;7280410;19;20195;-89
2023/10/29 03:40:20;;;;;;;6.80;1.07;;;15.40;99.90;;;;;;7281996;19;20681;-91
2023/10/29 03:42:46;;;;;;;6.70;1.00;;;15.50;99.90;;;;;;7279923;19;20187;-91
2023/10/29 03:45:12;;;;;;;6.67;0.90;;;15.40;99.90;;;;;;7283757;19;20330;-91
2023/10/29 03:47:37;;;;;;;5.67;1.20;;;15.40;99.90;;;;;;7303533;19;20184;-90
2023/10/29 03:50:04;;;;;;;4.03;1.00;;;15.50;99.90;;;;;;7281039;19;20177;-91
2023/10/29 03:52:29;;;;;;;7.50;1.03;;;15.50;99.90;;;;;;7281441;19;20193;-91
2023/10/29 03:54:55;;;;;;;9.10;1.20;;;15.50;99.90;;;;;;7285633;19;20187;-91
2023/10/29 03:57:21;;;;;;;5.30;0.90;;;15.30;99.90;;;;;;7286264;19;20197;-91
2023/10/29 03:59:47;;;;;;;5.13;0.90;;;15.40;99.90;;;;;;7287693;19;20286;-91
2023/10/29 04:02:13;;;;;;;13.23;1.20;;;15.40;99.90;;;;;;7286186;19;20177;-91
2023/10/29 04:04:40;;;;;;;6.23;1.13;;;15.40;99.90;;;;;;7308665;19;20182;-91
2023/10/29 04:07:06;;;;;;;6.60;0.90;;;15.40;99.90;;;;;;7286564;19;20200;-91
2023/10/29 04:09:32;;;;;;;5.30;0.87;;;15.40;99.90;;;;;;7285228;19;20173;-91
2023/10/29 04:11:59;;;;;;;9.07;1.33;;;15.40;99.90;;;;;;7287161;19;20194;-91
2023/10/29 04:14:25;;;;;;;7.23;1.00;;;15.40;99.90;;;;;;7286762;19;20187;-90
2023/10/29 04:16:50;;;;;;;8.30;1.37;;;15.30;99.90;;;;;;7286264;19;20196;-90
2023/10/29 04:19:16;;;;;;;8.77;1.27;;;15.30;99.90;;;;;;7286618;19;20192;-90
2023/10/29 04:21:42;;;;;;;6.20;1.20;;;15.30;99.90;;;;;;7289312;19;20263;-90
2023/10/29 04:24:08;;;;;;;9.10;1.10;;;15.30;99.90;;;;;;7307317;19;20181;-91
2023/10/29 04:26:33;;;;;;;9.70;1.10;;;15.30;99.90;;;;;;7286808;19;20194;-90
2023/10/29 04:28:59;;;;;;;5.63;0.93;;;15.30;99.90;;;;;;7286331;19;20187;-90
2023/10/29 04:31:25;;;;;;;7.50;1.13;;;15.30;99.90;;;;;;7285459;19;20191;-90
2023/10/29 04:33:51;;;;;;;9.03;1.50;;;15.30;99.90;;;;;;7287031;19;20188;-91
2023/10/29 04:36:22;;;;;;;9.67;1.40;;;15.40;99.90;;;;;;7285335;19;20271;-91
2023/10/29 04:38:48;;;;;;;4.47;1.00;;;15.40;99.90;;;;;;7286968;19;20199;-90
2023/10/29 04:41:14;;;;;;;8.27;1.63;;;15.40;99.90;;;;;;7285999;19;20304;-91
2023/10/29 04:43:43;;;;;;;7.73;1.30;;;15.30;99.90;;;;;;7307653;19;20198;-90
2023/10/29 04:46:10;;;;;;;10.30;1.50;;;15.30;99.90;;;;;;7287466;19;20652;-91
2023/10/29 04:48:40;;;;;;;11.53;1.47;;;15.30;99.90;;;;;;7286402;19;20282;-91
2023/10/29 04:51:06;;;;;;;10.37;1.60;;;15.20;99.90;;;;;;7286209;19;20225;-91
2023/10/29 04:53:36;;;;;;;10.90;1.47;;;15.20;99.90;;;;;;7286647;19;20926;-92
2023/10/29 04:56:02;;;;;;;10.37;1.37;;;15.30;99.90;;;;;;7286223;19;20189;-91
2023/10/29 04:58:29;;;;;;;8.53;1.30;;;15.40;99.90;;;;;;7285396;19;20195;-90
2023/10/29 05:00:56;;;;;;;10.33;1.50;;;15.40;99.90;;;;;;7286479;19;20193;-90
2023/10/29 05:03:22;;;;;;;10.53;1.30;;;15.40;99.90;;;;;;7285748;19;20663;-92
2023/10/29 05:05:48;;;;;;;10.40;1.50;;;15.30;99.90;;;;;;7285609;19;20202;-90
2023/10/29 05:08:13;;;;;;;14.10;2.00;;;15.20;99.90;;;;;;7284992;19;20763;-91
2023/10/29 05:10:43;;;;;;;13.20;1.87;;;15.20;99.90;;;;;;7304907;19;20223;-91
2023/10/29 05:13:09;;;;;;;11.70;1.40;;;15.20;99.90;;;;;;7285700;19;20192;-90
2023/10/29 05:15:35;;;;;;;13.97;1.90;;;15.20;99.90;;;;;;7283396;19;20593;-91
2023/10/29 05:18:00;;;;;;;11.37;1.70;;;15.10;99.90;;;;;;7283919;19;20191;-90
2023/10/29 05:20:26;;;;;;;10.87;1.37;;;15.10;99.90;;;;;;7285636;19;20202;-91
2023/10/29 05:22:52;;;;;;;12.47;1.33;;;15.00;99.90;;;;;;7284527;19;20182;-91
2023/10/29 05:25:19;;;;;;;13.75;2.05;;;15.00;99.90;;;;;;7283852;19;21556;-91
2023/10/29 05:27:52;;;;;;;13.90;2.03;;;15.00;99.90;;;;;;7284624;19;20628;-90
2023/10/29 05:30:17;;;;;;;8.87;1.43;;;15.00;99.90;;;;;;7283723;19;20197;-92
2023/10/29 05:32:43;;;;;;;11.37;1.67;;;14.90;99.90;;;;;;7284473;19;20607;-91
2023/10/29 05:35:09;;;;;;;11.30;1.70;;;14.80;99.90;;;;;;7307027;19;20194;-90
2023/10/29 05:37:35;;;;;;;14.30;1.87;;;14.70;99.90;;;;;;7281770;19;20191;-91
2023/10/29 05:40:04;;;;;;;13.87;2.00;;;14.60;99.90;;;;;;7285799;19;20245;-91
2023/10/29 05:42:30;;;;;;;11.87;1.73;;;14.60;99.90;;;;;;7282910;19;20213;-91
2023/10/29 05:44:56;;;;;;;13.50;1.93;;;14.50;99.90;;;;;;7282433;19;20655;-91
2023/10/29 05:47:22;;;;;;;12.73;1.87;;;14.50;99.90;;;;;;7284167;19;20186;-91
2023/10/29 05:49:47;;;;;;;11.37;1.77;;;14.40;99.90;;;;;;7282558;19;20186;-91
2023/10/29 05:52:13;;;;;;;9.23;1.77;;;14.40;99.90;;;;;;7283133;19;20203;-91
2023/10/29 05:54:39;;;;;;;11.73;2.20;;;14.40;99.90;;;;;;7306963;19;20229;-90
2023/10/29 05:57:05;;;;;;;17.07;1.93;;;14.30;99.90;;;;;;7283228;19;20193;-91
2023/10/29 05:59:32;;;;;;;13.77;2.20;;;14.30;99.90;;;;;;7285510;19;20184;-91
2023/10/29 06:01:58;;;;;;;15.27;1.90;;;14.40;99.90;;;;;;7281662;19;20193;-90
2023/10/29 06:04:24;;;;;;;11.57;2.00;;;14.30;99.90;;;;;;7284371;19;20688;-91
2023/10/29 06:06:50;;;;;;;16.90;1.93;;;14.30;99.90;;;;;;7283791;19;20203;-91
2023/10/29 06:09:16;;;;;;;11.37;2.00;;;14.30;99.90;;;;;;7282693;19;20188;-91
2023/10/29 06:11:42;;;;;;;13.23;1.63;;;14.20;99.90;;;;;;7291347;19;20201;-90
2023/10/29 06:14:08;;;;;;;11.97;1.83;;;14.20;99.90;;;;;;7309091;19;20182;-90
2023/10/29 06:16:34;;;;;;;11.40;1.70;;;14.20;99.90;;;;;;7285860;19;20185;-91
2023/10/29 06:19:03;;;;;;;15.43;2.63;;;14.10;99.90;;;;;;7287588;19;21305;-91
2023/10/29 06:21:30;;;;;;;12.97;1.70;;;14.00;99.90;;;;;;7290788;19;20192;-90
2023/10/29 06:23:59;;;;;;;13.40;1.60;;;14.00;99.90;;;;;;7278863;19;20225;-88
2023/10/29 06:26:25;;;;;;;17.07;2.13;;;14.00;99.90;;;;;;7290311;19;20646;-90
2023/10/29 06:28:51;;;;;;;14.00;1.80;;;13.90;99.90;;;;;;7289673;19;20190;-92
2023/10/29 06:31:16;;;;;;;13.40;1.80;;;13.80;99.90;;;;;;7289384;19;20200;-91
2023/10/29 06:33:42;;;;;;;14.13;1.80;;;13.90;99.90;;;;;;7287689;19;20197;-91
2023/10/29 06:36:08;;;;;;;10.17;1.60;;;13.90;99.90;;;;;;7307515;19;20199;-91
2023/10/29 06:38:34;;;;;;;11.27;1.53;;;13.80;99.90;;;;;;7282920;19;20256;-89
2023/10/29 06:41:00;;;;;;;15.07;2.30;;;13.90;99.90;;;;;;7283424;19;20225;-89
2023/10/29 06:43:26;;;;;;;13.27;1.90;;;13.80;99.90;;;;;;7284062;19;20202;-90
2023/10/29 06:45:52;;;;;;;10.83;1.73;;;13.80;99.90;;;;;;7282457;19;20205;-89
2023/10/29 06:48:18;;;;;;;7.83;1.50;;;13.80;99.90;;;;;;7283579;19;20226;-89
2023/10/29 06:50:44;;;;;;;20.90;2.20;;;13.70;99.90;;;;;;7282675;19;20675;-89
2023/10/29 06:53:10;;;;;;;12.87;1.50;;;13.70;99.90;;;;;;7305172;19;20191;-90
2023/10/29 06:55:37;;;;;;;12.93;1.63;;;13.70;99.90;;;;;;7282804;19;20532;-90
2023/10/29 06:58:03;;;;;;;12.63;1.83;;;13.80;99.90;;;;;;7283970;19;20201;-90
2023/10/29 07:00:29;;;;;;;11.97;1.73;;;13.80;99.90;;;;;;7282833;19;20214;-90
2023/10/29 07:02:56;;;;;;;12.73;1.80;;;13.70;99.90;;;;;;7283466;19;20200;-89
2023/10/29 07:05:21;;;;;;;12.10;1.80;;;13.70;99.90;;;;;;7283219;19;20189;-91
2023/10/29 07:07:47;;;;;;;14.27;1.70;;;13.60;99.90;;;;;;7282704;19;20196;-91
2023/10/29 07:10:13;;;;;;;15.30;2.13;;;13.60;99.90;;;;;;7283864;19;20196;-92
2023/10/29 07:12:39;;;;;;;17.23;2.10;;;13.70;99.90;;;;;;7308196;19;20194;-89
2023/10/29 07:15:05;;;;;;;10.83;1.67;;;13.70;99.90;;;;;;7285321;19;20211;-91
2023/10/29 07:17:31;;;;;;;13.53;1.83;;;13.80;99.90;;;;;;7281499;19;20194;-90
2023/10/29 07:19:57;;;;;;;12.40;1.80;;;13.80;99.90;;;;;;7284195;19;20700;-91
2023/10/29 07:22:23;;;;;;;13.13;1.90;;;13.80;99.90;;;;;;7282462;19;20702;-87
2023/10/29 07:24:48;;;;;;;15.07;2.10;;;13.80;99.90;;;;;;7280692;19;20296;-90
2023/10/29 07:27:14;;;;;;;16.37;1.80;;;13.90;99.90;;;;;;7280747;19;20194;-91
2023/10/29 07:29:40;;;;;;;11.40;1.83;;;13.80;99.90;;;;;;7300988;19;20177;-90
2023/10/29 07:32:06;;;;;;;13.00;2.40;;;13.80;99.90;;;;;;7281343;19;20196;-91
2023/10/29 07:34:32;;;;;;;14.63;1.90;;;13.80;99.90;;;;;;7280799;19;20210;-90
2023/10/29 07:36:57;;;;;;;14.13;2.00;;;13.80;99.90;;;;;;7279737;19;20189;-90
2023/10/29 07:39:23;;;;;;;10.90;1.90;;;13.80;99.90;;;;;;7281277;19;20189;-91
2023/10/29 07:41:49;;;;;;;17.60;2.10;;;13.90;99.90;;;;;;7280455;19;20200;-90
2023/10/29 07:44:15;;;;;;;11.90;1.67;;;14.00;99.90;;;;;;7279946;19;20194;-91
2023/10/29 07:46:41;;;;;;;18.53;2.00;;;14.10;99.90;;;;;;7299166;19;20193;-91
2023/10/29 07:49:07;;;;;;;12.63;1.93;;;14.30;99.90;;;;;;7292340;19;20193;-90
2023/10/29 07:51:33;;;;;;;14.97;2.10;;;14.50;99.90;;;;;;7280836;19;20205;-90
2023/10/29 07:53:59;;;;;;;13.23;2.17;;;14.70;99.90;;;;;;7279754;19;20190;-90
2023/10/29 07:56:24;;;;;;;11.70;1.90;;;14.80;99.90;;;;;;7279243;19;20225;-90
2023/10/29 07:58:51;;;;;;;17.83;2.80;;;14.90;99.90;;;;;;7280527;19;20272;-90
2023/10/29 08:01:17;;;;;;;13.73;1.93;;;14.90;99.90;;;;;;7280092;19;20182;-91
2023/10/29 08:03:45;;;;;;;16.33;2.27;;;15.00;99.90;;;;;;7278728;19;20187;-91
2023/10/29 08:06:12;;;;;;;17.53;1.90;;;15.00;99.90;;;;;;7303231;19;20808;-91
2023/10/29 08:08:38;;;;;;;14.70;2.03;;;15.00;99.90;;;;;;7280476;19;20189;-90
2023/10/29 08:11:04;;;;;;;12.47;1.77;;;15.00;99.90;;;;;;7279281;19;20193;-91
2023/10/29 08:13:30;;;;;;;15.97;2.20;;;15.10;99.90;;;;;;7279679;19;20191;-90
2023/10/29 08:15:55;;;;;;;13.37;1.90;;;15.10;99.90;;;;;;7279437;19;20191;-90
2023/10/29 08:18:21;;;;;;;12.53;2.00;;;15.10;99.90;;;;;;7280710;19;20196;-90
2023/10/29 08:20:47;;;;;;;18.20;2.10;;;15.10;99.90;;;;;;7279737;19;20187;-90
2023/10/29 08:23:13;;;;;;;14.13;2.30;;;15.20;99.90;;;;;;7279383;19;20193;-91
2023/10/29 08:25:39;;;;;;;10.23;1.70;;;15.20;99.90;;;;;;7301963;19;20196;-90
2023/10/29 08:28:08;;;;;;;15.57;2.00;;;15.30;99.90;;;;;;7278545;19;20184;-91
2023/10/29 08:30:34;;;;;;;12.87;1.83;;;15.30;99.90;;;;;;7277999;19;20350;-90
2023/10/29 08:33:00;;;;;;;14.73;2.17;;;15.50;99.90;;;;;;7279602;19;20192;-90
2023/10/29 08:35:26;;;;;;;11.47;2.00;;;15.60;99.90;;;;;;7278765;19;20190;-91
2023/10/29 08:37:52;;;;;;;15.43;1.90;;;15.60;99.90;;;;;;7278767;19;20214;-90
2023/10/29 08:40:17;;;;;;;16.87;2.57;;;15.60;99.90;;;;;;7284037;19;20700;-91
2023/10/29 08:42:43;;;;;;;11.07;1.87;;;15.70;99.90;;;;;;7284715;19;20196;-90
2023/10/29 08:45:12;;;;;;;17.97;1.93;;;15.90;99.90;;;;;;7303680;19;20197;-90
2023/10/29 08:47:38;;;;;;;11.93;1.80;;;15.90;99.90;;;;;;7288563;19;20192;-90
2023/10/29 08:50:06;;;;;;;12.13;2.03;;;16.00;99.90;;;;;;7285888;19;20204;-90
2023/10/29 08:52:32;;;;;;;12.23;2.00;;;15.90;99.90;;;;;;7286226;19;20257;-90
2023/10/29 08:54:58;;;;;;;16.07;2.33;;;16.20;99.90;;;;;;7285705;19;20207;-90
2023/10/29 08:57:23;;;;;;;12.53;1.80;;;16.30;99.90;;;;;;7284860;19;20196;-91
2023/10/29 08:59:49;;;;;;;12.70;1.93;;;16.30;99.90;;;;;;7286454;19;20684;-90
2023/10/29 09:02:15;;;;;;;13.97;2.90;;;16.60;99.90;;;;;;7283739;19;20183;-90
2023/10/29 09:04:41;;;;;;;14.67;2.67;;;16.90;99.90;;;;;;7306729;19;20549;-90
2023/10/29 09:07:07;;;;;;;15.23;2.10;;;16.90;99.90;;;;;;7287289;19;20193;-90
2023/10/29 09:09:33;;;;;;;18.20;1.90;;;16.90;99.90;;;;;;7284410;19;20699;-90
2023/10/29 09:11:59;;;;;;;14.10;2.00;;;16.90;99.90;;;;;;7283957;19;20234;-90
2023/10/29 09:14:25;;;;;;;10.00;1.70;;;17.00;99.90;;;;;;7284456;19;20229;-90
2023/10/29 09:16:50;;;;;;;17.77;2.17;;;16.80;99.90;;;;;;7284956;19;20255;-90
2023/10/29 09:19:17;;;;;;;15.13;1.90;;;16.90;99.90;;;;;;7284187;19;20576;-91
2023/10/29 09:21:44;;;;;;;15.70;2.43;;;16.50;99.90;;;;;;7290016;19;20674;-90
2023/10/29 09:24:09;;;;;;;12.13;1.97;;;16.40;99.90;;;;;;7306221;19;20177;-90
2023/10/29 09:26:36;;;;;;;10.87;1.83;;;16.40;99.90;;;;;;7284886;19;20190;-91
2023/10/29 09:29:05;;;;;;;12.63;2.17;;;16.40;99.90;;;;;;7285140;19;20715;-90
2023/10/29 09:31:30;;;;;;;14.43;2.37;;;16.30;99.90;;;;;;7285102;19;20245;-90
2023/10/29 09:33:56;;;;;;;17.43;2.33;;;16.40;99.90;;;;;;7286033;19;20681;-91
2023/10/29 09:36:22;;;;;;;16.03;2.63;;;16.40;99.90;;;;;;7284283;19;20185;-90
2023/10/29 09:38:48;;;;;;;13.50;2.27;;;16.40;99.90;;;;;;7285000;19;20189;-91
2023/10/29 09:41:18;;;;;;;20.50;2.30;;;16.40;99.90;;;;;;7284565;19;20185;-90
2023/10/29 09:43:44;;;;;;;17.17;2.07;;;16.10;99.90;;;;;;7284703;19;20190;-90
2023/10/29 09:46:11;;;;;;;15.10;2.60;;;15.80;99.90;;;;;;7306193;19;20195;-91
2023/10/29 09:48:38;;;;;;;16.37;1.97;;;15.90;99.90;;;;;;7285278;19;20217;-90
2023/10/29 09:51:06;;;;;;;16.97;2.20;;;15.90;99.90;;;;;;7282065;19;20217;-91
2023/10/29 09:53:36;;;;;;;15.50;2.30;;;16.10;99.90;;;;;;7286430;19;20178;-90
2023/10/29 09:56:02;;;;;;;13.97;2.00;;;16.40;99.90;;;;;;7282583;19;20213;-90
2023/10/29 09:58:28;;;;;;;19.27;2.30;;;16.80;99.90;;;;;;7282988;19;20252;-90
2023/10/29 10:00:56;;;;;;;17.20;2.43;;;17.00;99.90;;;;;;7282012;19;20209;-90
2023/10/29 10:03:24;;;;;;;11.73;2.10;;;17.20;99.90;;;;;;7283794;19;20221;-91
2023/10/29 10:05:51;;;;;;;13.87;1.97;;;17.50;99.90;;;;;;7284263;19;20193;-90
2023/10/29 10:08:29;;;;;;;15.90;2.23;;;17.20;99.90;;;;;;7284495;19;20182;-90
2023/10/29 10:10:56;;;;;;;14.07;2.03;;;17.20;99.90;;;;;;7284021;19;20221;-91
2023/10/29 10:13:39;;;;;;;16.20;2.67;;;16.80;99.90;;;;;;7283462;19;20192;-91
2023/10/29 10:16:15;;;;;;;13.53;1.70;;;16.60;99.90;;;;;;7285613;19;20189;-90
2023/10/29 10:18:57;;;;;;;13.67;1.93;;;16.50;99.90;;;;;;7284074;19;20681;-90
2023/10/29 10:21:40;;;;;;;14.63;2.03;;;16.50;99.90;;;;;;7182552;19;2004622;-90
2023/10/29 10:24:06;;;;;;;13.80;2.10;;;16.30;99.90;;;;;;7284496;19;20714;-90
2023/10/29 10:26:37;;;;;;;15.40;2.33;;;16.30;99.90;;;;;;7285520;19;20194;-91
2023/10/29 10:29:09;;;;;;;16.83;2.13;;;16.20;99.90;;;;;;7284616;19;20182;-90
2023/10/29 10:31:38;;;;;;;11.93;1.87;;;15.90;99.90;;;;;;7283428;19;20195;-90
2023/10/29 10:34:13;;;;;;;14.80;1.97;;;15.80;99.90;;;;;;7284773;19;20189;-90
2023/10/29 10:36:41;;;;;;;12.17;2.33;;;15.70;99.90;;;;;;7281853;19;20185;-90
2023/10/29 10:39:08;;;;;;;11.60;1.83;;;15.50;99.90;;;;;;7284196;19;20204;-90
2023/10/29 10:41:45;;;;;;;13.23;2.20;;;15.60;99.90;;;;;;7283979;19;20717;-90
2023/10/29 10:44:15;;;;;;;14.93;2.30;;;15.70;99.90;;;;;;7284307;19;20194;-90
2023/10/29 10:46:46;;;;;;;16.33;2.23;;;15.60;99.90;;;;;;7285249;19;20193;-90
2023/10/29 10:49:13;;;;;;;10.87;1.90;;;15.60;99.90;;;;;;7277117;19;20221;-90
2023/10/29 10:51:40;;;;;;;13.23;2.40;;;15.50;99.90;;;;;;7304089;19;20200;-90
2023/10/29 10:54:06;;;;;;;21.40;2.63;;;15.50;99.90;;;;;;7282751;19;20189;-90
2023/10/29 10:56:37;;;;;;;12.03;2.17;;;15.60;99.90;;;;;;7281175;19;20277;-90
2023/10/29 10:59:04;;;;;;;11.27;1.90;;;15.70;99.90;;;;;;7282490;19;20195;-90
2023/10/29 11:01:32;;;;;;;15.03;2.10;;;15.90;99.90;;;;;;7276740;19;20194;-90
2023/10/29 11:03:58;;;;;;;11.77;1.97;;;17.20;99.90;;;;;;7281108;19;20662;-89
2023/10/29 11:06:25;;;;;;;15.43;2.47;;;18.20;99.90;;;;;;7281561;19;20191;-90
2023/10/29 11:08:53;;;;;;;14.80;2.23;;;18.80;99.90;;;;;;7280813;19;20200;-91
2023/10/29 11:11:23;;;;;;;12.00;2.40;;;18.70;99.90;;;;;;7278607;19;20195;-91
2023/10/29 11:13:50;;;;;;;15.53;2.67;;;18.80;99.90;;;;;;7280907;19;20200;-91
2023/10/29 11:16:26;;;;;;;12.57;1.87;;;18.80;99.90;;;;;;7282754;19;20187;-91
2023/10/29 11:18:51;;;;;;;15.73;2.43;;;18.80;99.90;;;;;;7279619;19;20188;-91
2023/10/29 11:21:31;;;;;;;16.17;2.37;;;18.90;99.90;;;;;;7282882;19;20283;-91
2023/10/29 11:24:17;;;;;;;17.80;2.80;;;18.90;99.90;;;;;;7282378;19;20207;-90
2023/10/29 11:26:43;;;;;;;14.10;2.50;;;18.70;99.90;;;;;;7266034;19;20272;-91
2023/10/29 11:29:09;;;;;;;12.10;1.97;;;18.00;99.90;;;;;;7305373;19;20187;-91
2023/10/29 11:31:35;;;;;;;12.83;1.90;;;17.90;99.90;;;;;;7281778;19;20637;-91
2023/10/29 11:34:01;;;;;;;15.40;2.47;;;17.70;99.90;;;;;;7281394;19;20212;-91
2023/10/29 11:36:38;;;;;;;15.03;2.20;;;17.40;99.90;;;;;;7279789;19;20195;-91
2023/10/29 11:39:15;;;;;;;12.80;2.13;;;17.20;99.90;;;;;;7279122;19;20224;-91
2023/10/29 11:41:42;;;;;;;12.87;2.27;;;17.10;99.90;;;;;;7281998;19;20194;-91
2023/10/29 11:44:25;;;;;;;16.23;3.33;;;17.10;99.90;;;;;;7281197;19;20198;-91
2023/10/29 11:47:02;;;;;;;13.83;2.60;;;17.20;99.90;;;;;;7178086;19;2004433;-91
2023/10/29 11:49:44;;;;;;;13.83;2.47;;;17.60;99.90;;;;;;7280457;19;20253;-91
2023/10/29 11:52:10;;;;;;;15.20;2.13;;;17.60;99.90;;;;;;7280698;19;20285;-91
2023/10/29 11:54:38;;;;;;;13.27;2.60;;;17.60;99.90;;;;;;7281607;19;20689;-90
2023/10/29 11:57:07;;;;;;;15.77;2.57;;;17.80;99.90;;;;;;7280357;19;20195;-91
2023/10/29 11:59:33;;;;;;;11.33;2.00;;;18.00;99.90;;;;;;7280339;19;20196;-90
2023/10/29 12:01:59;;;;;;;20.77;3.03;;;17.90;99.90;;;;;;7282359;19;20210;-91
2023/10/29 12:04:31;;;;;;;16.30;2.17;;;17.80;99.90;;;;;;7281205;19;20202;-91
2023/10/29 12:06:57;;;;;;;17.13;3.53;;;17.70;99.90;;;;;;7281272;19;20219;-90
2023/10/29 12:09:25;;;;;;;10.10;1.90;;;17.40;99.90;;;;;;7280049;19;20216;-91
2023/10/29 12:11:53;;;;;;;15.73;1.97;;;17.40;99.90;;;;;;7280840;19;20189;-92
2023/10/29 12:14:42;;;;;;;11.87;1.83;;;17.10;99.90;;;;;;7281055;19;20205;-90
2023/10/29 12:17:08;;;;;;;18.40;2.37;;;16.70;99.90;;;;;;7287953;19;20178;-90
2023/10/29 12:19:38;;;;;;;11.37;2.43;;;16.40;99.90;;;;;;7288053;19;20196;-90
2023/10/29 12:22:20;;;;;;;12.27;2.47;;;16.10;99.90;;;;;;7296907;19;20215;-90
2023/10/29 12:24:48;;;;;;;10.80;1.97;;;16.00;99.90;;;;;;7269743;19;20288;-91
2023/10/29 12:27:14;;;;;;;13.53;1.93;;;15.60;99.90;;;;;;7289075;19;20185;-92
2023/10/29 12:29:41;;;;;;;12.63;2.10;;;15.50;99.90;;;;;;7308063;19;20195;-92
2023/10/29 12:32:18;;;;;;;12.57;2.10;;;15.40;99.90;;;;;;7286067;19;20200;-90
2023/10/29 12:34:51;;;;;;;12.03;2.43;;;15.20;99.90;;;;;;7266813;19;20697;-90
2023/10/29 12:37:27;;;;;;;12.00;1.80;;;15.10;99.90;;;;;;7286372;19;20187;-91
2023/10/29 12:39:59;;;;;;;10.37;2.17;;;15.10;99.90;;;;;;7286670;19;20215;-90